CheckWX is a tool to help pilots better visualize weather data.  It is not intended as a substitute for an official pre-flight weather briefing.

04:51:30 UTC

KCID TAF
The Eastern Iowa Airport
Cedar Rapids, Iowa, USA
KCID 170138Z 1702/1724 08006KT P6SM BKN019 OVC040 FM170700 06005KT 3SM BR OVC009 FM171300 07004KT P6SM OVC014 FM171800 06004KT P6SM BKN035

Jun-17@
02:00 UTC

Jun-17 @ 02:00 UTC

Jun-17@
07:00 UTC

Jun-17 @ 07:00 UTC

KCID 170138Z 1702/1724 08006KT P6SM BKN019 OVC040
Wind
  • 080° at 6 KTS
Cloud Levels
  • Broken at 1,900' AGL
  • Overcast at 4,000' AGL

Jun-17@
07:00 UTC

Jun-17 @ 07:00 UTC

Jun-17@
13:00 UTC

Jun-17 @ 13:00 UTC

FM170700 06005KT 3SM BR OVC009

From

From Standard forecast or significant change

Wind
  • 060° at 5 KTS
Conditions
Mist
Cloud Levels
  • Overcast at 900' AGL

Jun-17@
13:00 UTC

Jun-17 @ 13:00 UTC

Jun-17@
18:00 UTC

Jun-17 @ 18:00 UTC

FM171300 07004KT P6SM OVC014

From

From Standard forecast or significant change

Wind
  • 070° at 4 KTS
Cloud Levels
  • Overcast at 1,400' AGL

Jun-17@
18:00 UTC

Jun-17 @ 18:00 UTC

Jun-18@
00:00 UTC

Jun-18 @ 00:00 UTC

FM171800 06004KT P6SM BKN035

From

From Standard forecast or significant change

Wind
  • 060° at 4 KTS
Cloud Levels
  • Broken at 3,500' AGL